createdAt,value
2019-05-29T00:00:44.653Z,5.55
2019-05-29T00:03:12.838Z,5.85
2019-05-29T00:05:41.063Z,6.10
2019-05-29T00:08:10.414Z,5.72
2019-05-29T00:10:38.782Z,6.80
2019-05-29T00:13:08.098Z,5.03
2019-05-29T00:15:36.403Z,5.60
2019-05-29T00:18:04.672Z,5.33
2019-05-29T00:20:32.900Z,5.25
2019-05-29T00:23:01.095Z,6.78
2019-05-29T00:25:29.311Z,5.33
2019-05-29T00:27:57.517Z,6.00
2019-05-29T00:30:25.736Z,7.03
2019-05-29T00:32:53.936Z,5.70
2019-05-29T00:35:22.151Z,6.47
2019-05-29T00:37:50.351Z,7.87
2019-05-29T00:40:18.576Z,5.17
2019-05-29T00:42:46.801Z,5.50
2019-05-29T00:45:15.641Z,7.05
2019-05-29T00:47:43.903Z,4.92
2019-05-29T00:50:12.361Z,5.80
2019-05-29T00:52:40.723Z,6.70
2019-05-29T00:55:08.933Z,5.30
2019-05-29T00:57:37.139Z,5.33
2019-05-29T01:00:06.963Z,4.53
2019-05-29T01:02:35.264Z,6.00
2019-05-29T01:05:04.722Z,4.58
2019-05-29T01:07:32.946Z,4.25
2019-05-29T01:10:01.146Z,5.37
2019-05-29T01:12:29.363Z,5.58
2019-05-29T01:14:57.667Z,5.22
2019-05-29T01:17:25.891Z,5.92
2019-05-29T01:19:54.095Z,5.80
2019-05-29T01:22:22.463Z,4.12
2019-05-29T01:24:50.710Z,3.95
2019-05-29T01:27:18.929Z,6.03
2019-05-29T01:29:47.123Z,5.28
2019-05-29T01:32:15.568Z,4.60
2019-05-29T01:34:43.843Z,4.60
2019-05-29T01:37:12.059Z,5.65
2019-05-29T01:39:40.251Z,4.62
2019-05-29T01:42:08.472Z,5.00
2019-05-29T01:44:36.698Z,3.77
2019-05-29T01:47:04.887Z,5.75
2019-05-29T01:49:33.102Z,6.03
2019-05-29T01:52:01.301Z,4.25
2019-05-29T01:54:29.520Z,3.87
2019-05-29T01:56:57.715Z,4.60
2019-05-29T01:59:25.937Z,4.15
2019-05-29T02:01:54.138Z,5.47
2019-05-29T02:04:22.426Z,6.37
2019-05-29T02:06:50.637Z,4.90
2019-05-29T02:09:20.155Z,4.20
2019-05-29T02:11:48.488Z,5.80
2019-05-29T02:14:16.683Z,3.80
2019-05-29T02:16:44.898Z,4.17
2019-05-29T02:19:13.118Z,4.40
2019-05-29T02:21:41.315Z,5.30
2019-05-29T02:24:09.534Z,4.20
2019-05-29T02:26:37.784Z,6.12
2019-05-29T02:29:06.051Z,8.63
2019-05-29T02:31:34.272Z,5.65
2019-05-29T02:34:02.472Z,4.95
2019-05-29T02:36:30.694Z,6.60
2019-05-29T02:38:58.891Z,5.67
2019-05-29T02:41:28.433Z,8.45
2019-05-29T02:43:56.958Z,5.17
2019-05-29T02:46:26.469Z,5.30
2019-05-29T02:48:55.017Z,6.58
2019-05-29T02:51:24.215Z,7.03
2019-05-29T02:53:52.533Z,6.10
2019-05-29T02:56:20.934Z,9.28
2019-05-29T02:58:50.655Z,6.40
2019-05-29T03:01:18.876Z,7.17
2019-05-29T03:03:47.076Z,6.08
2019-05-29T03:06:15.288Z,5.70
2019-05-29T03:08:43.491Z,7.45
2019-05-29T03:11:11.705Z,5.85
2019-05-29T03:13:39.902Z,8.50
2019-05-29T03:16:12.180Z,6.85
2019-05-29T03:18:37.977Z,6.37
2019-05-29T03:21:06.211Z,9.18
2019-05-29T03:23:36.323Z,7.50
2019-05-29T03:26:04.265Z,7.05
2019-05-29T03:28:34.790Z,6.53
2019-05-29T03:31:02.389Z,6.65
2019-05-29T03:33:38.313Z,7.35
2019-05-29T03:36:00.610Z,8.15
2019-05-29T03:38:30.173Z,8.98
2019-05-29T03:40:58.603Z,10.80
2019-05-29T03:43:28.427Z,9.53
2019-05-29T03:45:56.673Z,9.80
2019-05-29T03:48:25.989Z,9.40
2019-05-29T03:50:54.658Z,8.33
2019-05-29T03:53:22.877Z,8.88
2019-05-29T03:55:51.075Z,9.15
2019-05-29T03:58:19.309Z,13.45
2019-05-29T04:00:48.893Z,8.78
2019-05-29T04:03:17.686Z,7.42
2019-05-29T04:05:45.882Z,8.03
2019-05-29T04:08:14.109Z,10.32
2019-05-29T04:10:42.311Z,9.43
2019-05-29T04:13:10.531Z,10.58
2019-05-29T04:15:38.912Z,9.33
2019-05-29T04:18:07.149Z,9.25
2019-05-29T04:20:38.402Z,9.30
2019-05-29T04:23:06.869Z,10.38
2019-05-29T04:25:39.603Z,10.25
2019-05-29T04:28:06.255Z,9.53
2019-05-29T04:30:36.285Z,9.93
2019-05-29T04:33:04.602Z,8.03
2019-05-29T04:35:34.459Z,7.90
2019-05-29T04:38:02.671Z,9.08
2019-05-29T04:40:32.525Z,10.20
2019-05-29T04:43:00.739Z,10.70
2019-05-29T04:45:29.134Z,11.53
2019-05-29T04:47:58.650Z,13.72
2019-05-29T04:50:26.843Z,10.63
2019-05-29T04:52:55.061Z,8.25
2019-05-29T04:55:23.255Z,11.10
2019-05-29T04:57:51.495Z,10.30
2019-05-29T05:00:19.688Z,11.10
2019-05-29T05:02:47.918Z,10.32
2019-05-29T05:05:19.409Z,11.38
2019-05-29T05:07:45.980Z,12.47
2019-05-29T05:10:15.827Z,9.28
2019-05-29T05:12:44.084Z,11.08
2019-05-29T05:15:12.357Z,10.68
2019-05-29T05:17:40.680Z,8.20
2019-05-29T05:20:08.900Z,10.53
2019-05-29T05:22:38.130Z,11.05
2019-05-29T05:25:06.535Z,12.07
2019-05-29T05:27:34.740Z,9.80
2019-05-29T05:30:03.022Z,8.55
2019-05-29T05:32:32.556Z,10.38
2019-05-29T05:35:00.960Z,8.55
2019-05-29T05:37:29.155Z,9.83
2019-05-29T05:39:57.381Z,9.23
2019-05-29T05:42:25.639Z,13.70
2019-05-29T05:44:53.803Z,10.32
2019-05-29T05:47:22.007Z,10.03
2019-05-29T05:49:50.224Z,13.05
2019-05-29T05:52:18.435Z,11.60
2019-05-29T05:54:46.651Z,11.45
2019-05-29T05:57:14.873Z,9.03
2019-05-29T05:59:43.075Z,7.72
2019-05-29T06:02:11.583Z,11.43
2019-05-29T06:04:40.055Z,9.78
2019-05-29T06:07:08.307Z,6.90
2019-05-29T06:09:36.552Z,8.05
2019-05-29T06:12:04.791Z,8.55
2019-05-29T06:14:34.159Z,7.75
2019-05-29T06:17:02.699Z,8.20
2019-05-29T06:19:30.935Z,7.60
2019-05-29T06:21:59.135Z,7.17
2019-05-29T06:24:27.524Z,8.83
2019-05-29T06:26:55.733Z,8.90
2019-05-29T06:29:24.021Z,8.73
2019-05-29T06:31:52.338Z,7.62
2019-05-29T06:34:20.553Z,8.78
2019-05-29T06:36:48.780Z,8.00
2019-05-29T06:39:16.971Z,9.13
2019-05-29T06:41:45.227Z,8.90
2019-05-29T06:44:13.389Z,9.45
2019-05-29T06:46:42.571Z,7.17
2019-05-29T06:49:10.803Z,8.28
2019-05-29T06:51:39.280Z,11.90
2019-05-29T06:54:07.636Z,10.25
2019-05-29T06:56:35.863Z,7.67
2019-05-29T06:59:04.065Z,9.53
2019-05-29T07:01:32.280Z,9.85
2019-05-29T07:04:11.360Z,6.95
2019-05-29T07:06:30.370Z,7.83
2019-05-29T07:08:58.557Z,8.18
2019-05-29T07:11:26.779Z,7.47
2019-05-29T07:13:54.989Z,8.60
2019-05-29T07:16:23.201Z,7.72
2019-05-29T07:21:21.343Z,7.75
2019-05-29T07:23:49.562Z,5.85
2019-05-29T07:26:17.778Z,7.85
2019-05-29T07:29:02.042Z,5.60
2019-05-29T07:31:15.857Z,9.18
2019-05-29T07:33:45.184Z,10.55
2019-05-29T07:36:13.572Z,7.55
2019-05-29T07:38:45.986Z,7.85
2019-05-29T07:41:11.657Z,5.30
2019-05-29T07:43:39.847Z,4.90
2019-05-29T07:46:08.122Z,4.95
2019-05-29T07:48:36.328Z,4.22
2019-05-29T07:51:07.246Z,5.75
2019-05-29T07:53:34.423Z,6.50
2019-05-29T07:56:02.683Z,5.80
2019-05-29T07:58:30.922Z,6.05
2019-05-29T08:01:11.630Z,5.67
2019-05-29T08:03:28.988Z,6.35
2019-05-29T08:05:57.184Z,5.42
2019-05-29T08:08:25.403Z,5.17
2019-05-29T08:10:53.636Z,6.42
2019-05-29T08:13:21.847Z,5.97
2019-05-29T08:16:01.592Z,5.87
2019-05-29T08:18:19.986Z,6.55
2019-05-29T08:20:48.251Z,4.92
2019-05-29T08:23:16.404Z,4.62
2019-05-29T08:25:45.352Z,4.17
2019-05-29T08:28:13.739Z,5.05
2019-05-29T08:30:47.404Z,4.35
2019-05-29T08:33:11.808Z,5.70
2019-05-29T08:35:41.370Z,6.45
2019-05-29T08:38:09.775Z,11.12
2019-05-29T08:40:37.979Z,3.87
2019-05-29T08:43:06.215Z,5.15
2019-05-29T08:45:34.416Z,10.05
2019-05-29T08:48:02.648Z,4.53
2019-05-29T08:50:30.860Z,4.37
2019-05-29T08:53:02.429Z,9.98
2019-05-29T08:55:28.968Z,4.25
2019-05-29T08:57:57.203Z,7.45
2019-05-29T09:00:25.669Z,4.55
2019-05-29T09:02:54.025Z,7.55
2019-05-29T09:05:22.222Z,4.90
2019-05-29T09:07:51.913Z,5.40
2019-05-29T09:10:20.288Z,5.47
2019-05-29T09:12:57.044Z,4.95
2019-05-29T09:15:21.073Z,6.30
2019-05-29T09:17:48.275Z,4.12
2019-05-29T09:20:34.059Z,4.08
2019-05-29T09:22:46.407Z,4.83
2019-05-29T09:25:15.417Z,3.65
2019-05-29T09:27:43.799Z,5.95
2019-05-29T09:30:14.963Z,3.75
2019-05-29T09:32:50.316Z,3.95
2019-05-29T09:35:11.748Z,5.50
2019-05-29T09:37:39.941Z,5.50
2019-05-29T09:40:09.792Z,4.50
2019-05-29T09:42:38.033Z,4.12
2019-05-29T09:45:06.285Z,4.35
2019-05-29T09:47:34.511Z,2.95
2019-05-29T09:50:04.391Z,4.05
2019-05-29T09:52:32.605Z,3.80
2019-05-29T09:55:00.823Z,3.42
2019-05-29T09:57:29.027Z,8.45
2019-05-29T09:59:58.459Z,4.10
2019-05-29T10:02:27.092Z,7.05
2019-05-29T10:04:56.527Z,3.87
2019-05-29T10:07:25.158Z,5.28
2019-05-29T10:09:53.607Z,4.05
2019-05-29T10:12:23.253Z,5.83
2019-05-29T10:14:51.602Z,5.03
2019-05-29T10:17:19.867Z,3.50
2019-05-29T10:19:48.063Z,4.58
2019-05-29T10:22:16.354Z,3.77
2019-05-29T10:24:44.549Z,4.03
2019-05-29T10:27:12.891Z,4.70
2019-05-29T10:29:41.091Z,4.92
2019-05-29T10:32:09.381Z,3.35
2019-05-29T10:34:37.682Z,4.33
2019-05-29T10:37:05.958Z,4.55
2019-05-29T10:39:34.188Z,5.35
2019-05-29T10:42:02.376Z,3.77
2019-05-29T10:44:30.602Z,4.03
2019-05-29T10:46:58.832Z,4.30
2019-05-29T10:49:27.112Z,4.35
2019-05-29T10:52:11.743Z,3.17
2019-05-29T10:54:25.225Z,4.00
2019-05-29T10:56:54.822Z,5.20
2019-05-29T10:59:23.318Z,4.35
2019-05-29T11:01:51.926Z,7.37
2019-05-29T11:04:20.644Z,4.30
2019-05-29T11:06:50.153Z,3.20
2019-05-29T11:09:18.565Z,4.40
2019-05-29T11:11:47.084Z,4.47
2019-05-29T11:14:16.485Z,2.90
2019-05-29T11:16:44.700Z,3.72
2019-05-29T11:19:12.896Z,3.90
2019-05-29T11:21:41.118Z,3.67
2019-05-29T11:24:09.316Z,3.37
2019-05-29T11:26:37.544Z,5.85
2019-05-29T11:29:05.816Z,3.12
2019-05-29T11:31:34.032Z,2.83
2019-05-29T11:34:02.304Z,3.47
2019-05-29T11:36:30.536Z,3.05
2019-05-29T11:39:03.210Z,3.27
2019-05-29T11:41:28.699Z,4.00
2019-05-29T11:43:56.957Z,2.62
2019-05-29T11:46:25.363Z,3.00
2019-05-29T11:48:53.578Z,2.75
2019-05-29T11:51:21.779Z,5.15
2019-05-29T11:53:51.332Z,3.45
2019-05-29T11:56:19.768Z,4.55
2019-05-29T11:58:48.084Z,4.15
2019-05-29T12:01:16.252Z,2.98
2019-05-29T12:04:09.516Z,3.62
2019-05-29T12:06:14.454Z,2.40
2019-05-29T12:08:42.676Z,2.55
2019-05-29T12:11:10.868Z,3.08
2019-05-29T12:13:39.118Z,2.35
2019-05-29T12:16:07.292Z,3.33
2019-05-29T12:18:35.524Z,3.10
2019-05-29T12:21:03.772Z,2.72
2019-05-29T12:23:31.962Z,3.25
2019-05-29T12:26:19.974Z,4.97
2019-05-29T12:28:31.081Z,3.47
2019-05-29T12:30:59.446Z,3.62
2019-05-29T12:33:27.631Z,4.05
2019-05-29T12:35:56.892Z,3.25
2019-05-29T12:38:25.175Z,4.55
2019-05-29T12:40:53.540Z,3.37
2019-05-29T12:43:27.078Z,2.98
2019-05-29T12:45:51.854Z,5.42
2019-05-29T12:48:20.076Z,3.83
2019-05-29T12:50:48.428Z,4.87
2019-05-29T12:53:29.830Z,5.60
2019-05-29T12:55:46.516Z,3.25
2019-05-29T12:58:14.710Z,2.95
2019-05-29T13:00:42.932Z,3.50
2019-05-29T13:03:11.131Z,6.95
2019-05-29T13:05:39.413Z,3.60
2019-05-29T13:08:07.639Z,4.80
2019-05-29T13:10:35.823Z,5.97
2019-05-29T13:13:10.118Z,3.47
2019-05-29T13:15:34.067Z,5.37
2019-05-29T13:18:07.506Z,4.60
2019-05-29T13:20:32.122Z,4.72
2019-05-29T13:23:02.423Z,4.45
2019-05-29T13:25:30.267Z,3.58
2019-05-29T13:27:59.871Z,4.47
2019-05-29T13:30:28.511Z,3.50
2019-05-29T13:33:02.308Z,4.65
2019-05-29T13:35:26.906Z,3.83
2019-05-29T13:37:55.453Z,3.05
2019-05-29T13:40:23.653Z,3.77
2019-05-29T13:42:51.932Z,5.10
2019-05-29T13:45:20.144Z,5.78
2019-05-29T13:47:48.355Z,3.87
2019-05-29T13:50:16.582Z,3.83
2019-05-29T13:52:44.839Z,4.95
2019-05-29T13:55:13.161Z,3.98
2019-05-29T13:57:41.354Z,3.92
2019-05-29T14:00:30.558Z,4.08
2019-05-29T14:02:41.793Z,5.15
2019-05-29T14:05:10.029Z,4.83
2019-05-29T14:07:39.375Z,3.83
2019-05-29T14:10:07.845Z,4.25
2019-05-29T14:12:38.149Z,3.45
2019-05-29T14:15:08.143Z,4.15
2019-05-29T14:17:36.560Z,3.98
2019-05-29T14:20:05.214Z,3.55
2019-05-29T14:22:36.954Z,4.00
2019-05-29T14:25:05.787Z,3.58
2019-05-29T14:27:34.000Z,3.77
2019-05-29T14:30:03.493Z,4.60
2019-05-29T14:32:32.218Z,4.40
2019-05-29T14:35:03.721Z,5.55
2019-05-29T14:37:30.512Z,4.15
2019-05-29T14:39:58.708Z,3.20
2019-05-29T14:42:26.944Z,3.75
2019-05-29T14:44:55.135Z,4.62
2019-05-29T14:47:23.432Z,5.25
2019-05-29T14:49:51.638Z,2.90
2019-05-29T14:52:19.853Z,4.10
2019-05-29T14:54:52.382Z,4.75
2019-05-29T14:57:25.744Z,5.45
2019-05-29T14:59:50.767Z,3.00
2019-05-29T15:02:23.831Z,2.85
2019-05-29T15:04:49.293Z,4.05
2019-05-29T15:07:17.466Z,2.30
2019-05-29T15:09:45.836Z,4.55
2019-05-29T15:12:14.278Z,2.58
2019-05-29T15:14:42.611Z,3.85
2019-05-29T15:17:11.033Z,2.20
2019-05-29T15:19:39.223Z,4.17
2019-05-29T15:22:09.207Z,2.30
2019-05-29T15:24:37.824Z,3.27
2019-05-29T15:27:16.197Z,2.67
2019-05-29T15:29:44.490Z,2.87
2019-05-29T15:32:12.683Z,2.60
2019-05-29T15:34:40.975Z,3.87
2019-05-29T15:37:12.175Z,3.65
2019-05-29T15:39:39.039Z,4.67
2019-05-29T15:42:08.832Z,2.50
2019-05-29T15:44:37.267Z,2.90
2019-05-29T15:47:06.764Z,2.67
2019-05-29T15:49:35.115Z,3.35
2019-05-29T15:52:03.361Z,5.83
2019-05-29T15:54:31.585Z,2.58
2019-05-29T15:56:59.852Z,3.22
2019-05-29T15:59:28.045Z,3.20
2019-05-29T16:01:56.269Z,6.37
2019-05-29T16:04:24.471Z,4.60
2019-05-29T16:06:55.085Z,3.12
2019-05-29T16:09:22.608Z,3.85
2019-05-29T16:11:50.969Z,3.87
2019-05-29T16:14:19.306Z,4.15
2019-05-29T16:16:47.655Z,2.87
2019-05-29T16:19:16.256Z,4.37
2019-05-29T16:21:44.586Z,5.12
2019-05-29T16:24:12.789Z,3.45
2019-05-29T16:26:41.014Z,3.02
2019-05-29T16:29:10.431Z,6.95
2019-05-29T16:31:38.858Z,7.05
2019-05-29T16:34:07.206Z,3.65
2019-05-29T16:36:35.424Z,3.62
2019-05-29T16:39:05.194Z,3.10
2019-05-29T16:41:33.396Z,3.87
2019-05-29T16:44:01.629Z,3.62
2019-05-29T16:46:29.825Z,4.75
2019-05-29T16:48:58.044Z,5.95
2019-05-29T16:51:26.235Z,5.33
2019-05-29T16:53:54.478Z,5.90
2019-05-29T16:56:23.364Z,6.92
2019-05-29T16:58:56.015Z,6.85
2019-05-29T17:01:24.301Z,5.12
2019-05-29T17:03:52.519Z,4.40
2019-05-29T17:06:22.316Z,7.05
2019-05-29T17:08:50.683Z,4.87
2019-05-29T17:11:18.875Z,4.08
2019-05-29T17:13:47.096Z,3.83
2019-05-29T17:16:16.369Z,6.53
2019-05-29T17:18:44.613Z,4.70
2019-05-29T17:21:12.849Z,4.92
2019-05-29T17:23:41.043Z,3.83
2019-05-29T17:26:10.945Z,3.90
2019-05-29T17:28:39.107Z,2.98
2019-05-29T17:31:07.343Z,2.52
2019-05-29T17:33:35.564Z,2.90
2019-05-29T17:36:03.789Z,2.77
2019-05-29T17:38:31.987Z,4.70
2019-05-29T17:41:00.226Z,3.30
2019-05-29T17:43:28.838Z,3.62
2019-05-29T17:45:57.289Z,2.70
2019-05-29T17:48:25.915Z,2.80
2019-05-29T17:50:54.216Z,2.50
2019-05-29T17:53:22.550Z,2.30
2019-05-29T17:55:51.133Z,2.27
2019-05-29T17:58:21.074Z,2.62
2019-05-29T18:00:49.231Z,2.80
2019-05-29T18:03:18.033Z,2.37
2019-05-29T18:05:46.349Z,2.55
2019-05-29T18:08:14.567Z,3.35
2019-05-29T18:10:43.439Z,3.92
2019-05-29T18:13:11.663Z,2.37
2019-05-29T18:15:39.860Z,4.70
2019-05-29T18:18:08.095Z,3.20
2019-05-29T18:20:36.280Z,3.67
2019-05-29T18:23:04.537Z,3.15
2019-05-29T18:25:32.700Z,4.65
2019-05-29T18:28:00.924Z,4.67
2019-05-29T18:30:29.138Z,3.08
2019-05-29T18:32:57.335Z,2.83
2019-05-29T18:35:25.563Z,3.52
2019-05-29T18:37:53.762Z,3.65
2019-05-29T18:40:22.347Z,4.65
2019-05-29T18:42:50.679Z,3.40
2019-05-29T18:45:22.415Z,3.40
2019-05-29T18:47:48.940Z,3.40
2019-05-29T18:50:17.154Z,4.33
2019-05-29T18:52:45.346Z,3.20
2019-05-29T18:55:13.633Z,3.10
2019-05-29T18:57:41.827Z,2.90
2019-05-29T19:00:10.787Z,3.22
2019-05-29T19:02:38.984Z,3.95
2019-05-29T19:05:07.204Z,3.55
2019-05-29T19:07:35.415Z,3.55
2019-05-29T19:10:06.632Z,3.35
2019-05-29T19:12:34.924Z,3.83
2019-05-29T19:15:03.816Z,3.80
2019-05-29T19:17:32.311Z,4.75
2019-05-29T19:20:00.706Z,5.22
2019-05-29T19:22:28.959Z,4.17
2019-05-29T19:24:57.162Z,4.10
2019-05-29T19:27:36.702Z,5.50
2019-05-29T19:29:55.223Z,3.80
2019-05-29T19:32:23.446Z,3.72
2019-05-29T19:34:51.632Z,5.60
2019-05-29T19:37:19.861Z,4.80
2019-05-29T19:39:48.059Z,3.60
2019-05-29T19:42:16.280Z,4.20
2019-05-29T19:44:44.477Z,3.47
2019-05-29T19:47:12.676Z,2.75
2019-05-29T19:49:40.905Z,3.65
2019-05-29T19:52:09.090Z,3.20
2019-05-29T19:54:37.307Z,3.85
2019-05-29T19:57:05.509Z,3.00
2019-05-29T19:59:34.055Z,3.17
2019-05-29T20:02:02.330Z,2.50
2019-05-29T20:04:30.606Z,4.15
2019-05-29T20:06:58.749Z,4.85
2019-05-29T20:09:27.314Z,4.33
2019-05-29T20:11:55.672Z,4.50
2019-05-29T20:14:23.902Z,5.22
2019-05-29T20:16:52.097Z,3.00
2019-05-29T20:19:20.315Z,3.20
2019-05-29T20:21:48.512Z,4.28
2019-05-29T20:24:16.742Z,6.53
2019-05-29T20:26:44.950Z,4.87
2019-05-29T20:29:13.160Z,4.85
2019-05-29T20:31:41.356Z,3.83
2019-05-29T20:34:09.572Z,3.33
2019-05-29T20:36:38.792Z,2.80
2019-05-29T20:39:07.715Z,3.15
2019-05-29T20:41:38.560Z,3.92
2019-05-29T20:44:05.771Z,2.72
2019-05-29T20:46:34.910Z,3.15
2019-05-29T20:49:03.092Z,3.15
2019-05-29T20:51:32.757Z,4.42
2019-05-29T20:54:01.332Z,3.22
2019-05-29T20:56:29.548Z,3.52
2019-05-29T20:58:57.763Z,2.80
2019-05-29T21:01:26.001Z,4.30
2019-05-29T21:03:54.187Z,3.98
2019-05-29T21:06:22.409Z,3.10
2019-05-29T21:08:50.667Z,3.87
2019-05-29T21:11:18.884Z,5.28
2019-05-29T21:13:47.080Z,6.72
2019-05-29T21:16:15.301Z,4.33
2019-05-29T21:18:44.151Z,5.10
2019-05-29T21:21:12.517Z,5.50
2019-05-29T21:23:40.707Z,5.30
2019-05-29T21:26:08.927Z,4.60
2019-05-29T21:28:42.997Z,4.92
2019-05-29T21:31:07.080Z,4.25
2019-05-29T21:33:35.793Z,4.47
2019-05-29T21:36:04.177Z,4.72
2019-05-29T21:38:32.410Z,5.30
2019-05-29T21:41:00.666Z,5.35
2019-05-29T21:43:28.891Z,6.25
2019-05-29T21:45:57.089Z,7.33
2019-05-29T21:48:25.312Z,4.53
2019-05-29T21:50:53.520Z,5.75
2019-05-29T21:53:21.735Z,6.30
2019-05-29T21:55:49.931Z,5.12
2019-05-29T21:58:18.167Z,4.55
2019-05-29T22:00:49.056Z,5.25
2019-05-29T22:03:17.511Z,7.55
2019-05-29T22:05:46.790Z,4.50
2019-05-29T22:08:15.199Z,6.25
2019-05-29T22:10:43.697Z,4.72
2019-05-29T22:13:11.897Z,5.72
2019-05-29T22:15:40.109Z,4.65
2019-05-29T22:18:08.380Z,4.60
2019-05-29T22:20:36.603Z,6.08
2019-05-29T22:23:04.803Z,5.65
2019-05-29T22:25:34.569Z,4.75
2019-05-29T22:28:02.948Z,4.17
2019-05-29T22:30:31.149Z,6.97
2019-05-29T22:32:59.616Z,6.75
2019-05-29T22:35:27.968Z,4.83
2019-05-29T22:37:57.551Z,6.30
2019-05-29T22:40:25.899Z,3.90
2019-05-29T22:42:54.119Z,3.22
2019-05-29T22:45:22.311Z,3.67
2019-05-29T22:47:51.583Z,3.25
2019-05-29T22:50:19.829Z,4.00
2019-05-29T22:52:48.049Z,6.17
2019-05-29T22:55:16.255Z,3.95
2019-05-29T22:57:44.472Z,3.95
2019-05-29T23:00:13.133Z,3.58
2019-05-29T23:02:41.352Z,4.85
2019-05-29T23:05:09.616Z,4.35
2019-05-29T23:07:37.842Z,5.20
2019-05-29T23:10:07.202Z,3.00
2019-05-29T23:12:35.423Z,2.98
2019-05-29T23:15:04.559Z,5.33
2019-05-29T23:17:32.783Z,4.00
2019-05-29T23:20:00.982Z,3.80
2019-05-29T23:22:29.201Z,3.90
2019-05-29T23:24:58.720Z,5.28
2019-05-29T23:27:27.431Z,5.00
2019-05-29T23:29:56.780Z,5.67
2019-05-29T23:32:25.051Z,4.78
2019-05-29T23:34:53.262Z,4.20
2019-05-29T23:37:21.472Z,4.00
2019-05-29T23:39:49.665Z,4.17
2019-05-29T23:42:17.889Z,7.15
2019-05-29T23:44:46.084Z,5.67
2019-05-29T23:47:14.303Z,4.83
2019-05-29T23:49:42.608Z,5.62
2019-05-29T23:52:10.824Z,5.20
2019-05-29T23:54:38.995Z,5.05
2019-05-29T23:57:07.236Z,5.92
2019-05-29T23:59:35.535Z,6.03
